Sentry Page Protection
Cameras OFFLINE

Operational times are from 0500 until 2200 (UTC). We'll see you soon!

Latest Glasgow METAR Decoded

What is a METAR?

Raw METAR: EGPF 140220Z 25007KT 8000 -RA FEW019/// BKN033/// //////CB 11/10 Q1017 RERA
Time Published: Mon Jun 14 02:20:00 2021

Altimeter: 1017 hPa (30.03 inHg)
Clouds: Few clouds at 1900ft, Broken layer at 3300ft - Reported AGL
Wx_codes: Light Rain
Visibility: 8km (5sm)
Dewpoint: 10°C (50°F)
Temperature: 11°C (52°F)
Wind: WSW-250 at 7kt

Data pulled from AVWX API.

Customise webcam positions

Apply changes